Time;durP1;ratioP1;P1;durP2;ratioP2;P2;SDS_P1;SDS_P2;PMS_P1;PMS_P2;Temp;Humidity;BMP_temperature;BMP_pressure;BME280_temperature;BME280_humidity;BME280_pressure;Samples;Min_cycle;Max_cycle;Signal;HPM_P1;HPM_P2
2022/07/04 00:00:56;;;;;;;4.57;1.90;;;15.30;99.90;;;;;;5073844;28;20218;-93
2022/07/04 00:03:23;;;;;;;3.47;1.77;;;15.30;99.90;;;;;;5071657;28;20223;-93
2022/07/04 00:05:49;;;;;;;3.43;1.90;;;15.20;99.90;;;;;;5087329;28;20219;-92
2022/07/04 00:08:17;;;;;;;3.13;1.90;;;15.20;99.90;;;;;;5076844;28;20254;-93
2022/07/04 00:10:45;;;;;;;5.57;1.90;;;15.20;99.90;;;;;;5063750;28;20694;-92
2022/07/04 00:13:12;;;;;;;4.13;1.70;;;15.10;99.90;;;;;;5063990;28;20227;-93
2022/07/04 00:15:39;;;;;;;6.23;2.23;;;15.10;99.90;;;;;;5071279;28;20214;-94
2022/07/04 00:18:06;;;;;;;3.73;1.93;;;15.10;99.90;;;;;;5084973;28;20232;-93
2022/07/04 00:20:32;;;;;;;5.27;2.20;;;15.00;99.90;;;;;;5066845;28;20223;-92
2022/07/04 00:22:59;;;;;;;4.57;1.83;;;15.10;99.90;;;;;;5074956;28;20227;-93
2022/07/04 00:25:28;;;;;;;5.23;1.93;;;15.00;99.90;;;;;;5074763;28;20253;-93
2022/07/04 00:27:55;;;;;;;6.17;2.20;;;15.00;99.90;;;;;;5073092;28;20221;-92
2022/07/04 00:30:22;;;;;;;5.40;2.10;;;15.00;99.90;;;;;;5066895;28;20596;-93
2022/07/04 00:32:48;;;;;;;5.67;1.90;;;14.90;99.90;;;;;;5067523;28;20286;-93
2022/07/04 00:35:15;;;;;;;3.27;2.00;;;14.90;99.90;;;;;;5085094;28;20241;-92
2022/07/04 00:37:42;;;;;;;4.57;2.30;;;14.90;99.90;;;;;;5088904;28;20225;-93
2022/07/04 00:40:10;;;;;;;5.53;2.10;;;14.90;99.90;;;;;;5072476;28;20703;-91
2022/07/04 00:42:38;;;;;;;3.53;2.07;;;14.90;99.90;;;;;;5090393;28;20213;-93
2022/07/04 00:45:06;;;;;;;4.80;2.50;;;14.90;99.90;;;;;;5069238;28;20306;-92
2022/07/04 00:47:33;;;;;;;4.33;2.20;;;14.80;99.90;;;;;;5070903;28;20215;-92
2022/07/04 00:50:00;;;;;;;6.80;2.30;;;14.80;99.90;;;;;;5069021;28;20253;-93
2022/07/04 00:52:27;;;;;;;7.70;2.90;;;14.80;99.90;;;;;;5071411;28;20284;-93
2022/07/04 00:54:54;;;;;;;7.03;2.47;;;14.80;99.90;;;;;;5062839;28;20251;-93
2022/07/04 00:57:21;;;;;;;5.80;2.83;;;14.80;99.90;;;;;;5069944;28;20355;-93
2022/07/04 00:59:49;;;;;;;6.17;2.60;;;14.80;99.90;;;;;;5070546;28;20310;-94
2022/07/04 01:02:16;;;;;;;5.17;2.47;;;14.90;99.90;;;;;;5070901;28;20249;-93
2022/07/04 01:04:43;;;;;;;8.27;2.97;;;14.80;99.90;;;;;;5046357;28;20238;-93
2022/07/04 01:07:12;;;;;;;6.07;2.27;;;14.80;99.90;;;;;;5082622;28;20226;-93
2022/07/04 01:09:38;;;;;;;6.00;3.27;;;14.70;99.90;;;;;;5074118;28;20219;-93
2022/07/04 01:12:06;;;;;;;5.03;2.90;;;14.80;99.90;;;;;;5072734;28;20258;-94
2022/07/04 01:14:33;;;;;;;9.57;3.70;;;14.70;99.90;;;;;;5075723;28;20655;-93
2022/07/04 01:17:01;;;;;;;6.27;3.40;;;14.70;99.90;;;;;;5080173;28;20219;-93
2022/07/04 01:19:28;;;;;;;6.30;3.60;;;14.70;99.90;;;;;;5071314;28;20294;-93
2022/07/04 01:21:56;;;;;;;5.20;3.30;;;14.70;99.90;;;;;;5068377;28;20216;-92
2022/07/04 01:24:23;;;;;;;6.97;3.40;;;14.80;99.90;;;;;;5094140;28;20244;-93
2022/07/04 01:26:50;;;;;;;6.53;3.63;;;14.70;99.90;;;;;;5074535;28;20246;-92
2022/07/04 01:29:17;;;;;;;5.87;3.80;;;14.70;99.90;;;;;;5068167;28;20222;-93
2022/07/04 01:31:44;;;;;;;5.70;3.70;;;14.70;99.90;;;;;;5071450;28;20260;-93
2022/07/04 01:34:11;;;;;;;9.87;4.60;;;14.60;99.90;;;;;;5091371;28;20242;-93
2022/07/04 01:36:37;;;;;;;9.00;5.00;;;14.60;99.90;;;;;;5070827;28;20222;-92
2022/07/04 01:39:06;;;;;;;5.83;4.40;;;14.70;99.90;;;;;;5072606;28;20720;-92
2022/07/04 01:41:35;;;;;;;7.07;4.80;;;14.60;99.90;;;;;;5067739;28;20234;-91
2022/07/04 01:44:01;;;;;;;5.53;4.00;;;14.60;99.90;;;;;;5076275;28;20735;-93
2022/07/04 01:46:28;;;;;;;7.97;4.33;;;14.60;99.90;;;;;;5073369;28;20261;-93
2022/07/04 01:48:55;;;;;;;8.57;4.57;;;14.50;99.90;;;;;;5071899;28;20226;-92
2022/07/04 01:51:22;;;;;;;7.70;5.07;;;14.60;99.90;;;;;;5061666;28;20227;-93
2022/07/04 01:53:49;;;;;;;8.90;4.70;;;14.50;99.90;;;;;;5069221;28;20229;-93
2022/07/04 01:56:17;;;;;;;7.17;5.10;;;14.50;99.90;;;;;;5068840;28;20222;-93
2022/07/04 01:58:43;;;;;;;9.30;4.60;;;14.40;99.90;;;;;;5070393;28;20285;-93
2022/07/04 02:03:55;;;;;;;7.50;5.33;;;14.40;99.90;;;;;;5070911;28;20218;-93
2022/07/04 02:06:21;;;;;;;6.83;5.00;;;14.40;99.90;;;;;;5082030;28;20218;-93
2022/07/04 02:14:15;;;;;;;7.27;5.87;;;14.30;99.90;;;;;;5070704;28;20237;-93
2022/07/04 02:16:41;;;;;;;6.93;5.77;;;14.30;99.90;;;;;;5071579;28;20213;-92
2022/07/04 02:19:08;;;;;;;8.43;6.27;;;14.20;99.90;;;;;;5070341;28;20217;-92
2022/07/04 02:21:35;;;;;;;12.03;5.73;;;14.20;99.90;;;;;;5072665;28;20652;-92
2022/07/04 02:24:02;;;;;;;14.03;7.30;;;14.20;99.90;;;;;;5070483;28;20230;-92
2022/07/04 02:26:29;;;;;;;7.80;6.40;;;14.20;99.90;;;;;;5072783;28;20289;-92
2022/07/04 02:28:57;;;;;;;8.03;6.13;;;14.10;99.90;;;;;;5072000;28;20318;-93
2022/07/04 02:31:24;;;;;;;6.97;5.47;;;14.10;99.90;;;;;;5069077;28;21167;-93
2022/07/04 02:33:51;;;;;;;9.33;7.03;;;14.10;99.90;;;;;;5063362;28;20240;-92
2022/07/04 02:36:17;;;;;;;8.67;7.70;;;14.10;99.90;;;;;;5069720;28;20228;-93
2022/07/04 02:38:44;;;;;;;10.23;7.30;;;14.10;99.90;;;;;;5074029;28;20249;-93
2022/07/04 02:41:11;;;;;;;9.60;7.03;;;14.00;99.90;;;;;;5064317;28;20696;-93
2022/07/04 02:43:38;;;;;;;9.10;6.80;;;14.00;99.90;;;;;;5089463;28;20819;-93
2022/07/04 02:46:06;;;;;;;8.60;6.53;;;14.00;99.90;;;;;;5067850;28;20252;-91
2022/07/04 02:48:33;;;;;;;11.87;6.80;;;14.00;99.90;;;;;;5071100;28;20221;-92
2022/07/04 02:50:59;;;;;;;8.27;6.70;;;14.00;99.90;;;;;;5086635;28;20218;-93
2022/07/04 02:53:26;;;;;;;12.97;7.43;;;13.90;99.90;;;;;;5071898;28;20305;-93
2022/07/04 02:55:53;;;;;;;8.93;7.33;;;13.90;99.90;;;;;;5076287;28;20305;-93
2022/07/04 02:58:20;;;;;;;11.50;7.20;;;13.90;99.90;;;;;;5067824;28;20234;-93
2022/07/04 03:00:47;;;;;;;9.23;7.17;;;13.90;99.90;;;;;;5070347;28;20713;-92
2022/07/04 03:03:15;;;;;;;9.03;6.57;;;13.90;99.90;;;;;;5071411;28;20275;-93
2022/07/04 03:05:42;;;;;;;13.00;7.53;;;13.90;99.90;;;;;;5072180;28;20271;-93
2022/07/04 03:08:09;;;;;;;10.30;6.27;;;13.80;99.90;;;;;;5072032;28;20226;-93
2022/07/04 03:10:36;;;;;;;8.47;6.67;;;13.80;99.90;;;;;;5083793;28;20222;-92
2022/07/04 03:13:02;;;;;;;9.33;6.33;;;13.80;99.90;;;;;;5087142;28;20221;-92
2022/07/04 03:15:29;;;;;;;9.53;7.10;;;13.80;99.90;;;;;;5071487;28;20250;-93
2022/07/04 03:17:56;;;;;;;7.57;6.00;;;13.80;99.90;;;;;;5066643;28;20226;-93
2022/07/04 03:20:24;;;;;;;10.53;6.43;;;13.80;99.90;;;;;;5062259;28;20237;-94
2022/07/04 03:22:51;;;;;;;9.37;6.80;;;13.70;99.90;;;;;;5067160;28;20222;-92
2022/07/04 03:25:18;;;;;;;8.93;5.93;;;13.80;99.90;;;;;;5092216;28;20243;-92
2022/07/04 03:27:45;;;;;;;9.63;5.80;;;13.70;99.90;;;;;;5090538;28;20255;-93
2022/07/04 03:30:12;;;;;;;8.93;5.87;;;13.70;99.90;;;;;;5071366;28;20238;-92
2022/07/04 03:32:39;;;;;;;8.23;6.10;;;13.70;99.90;;;;;;5073099;28;20250;-92
2022/07/04 03:35:07;;;;;;;7.13;5.53;;;13.70;99.90;;;;;;5069546;28;20256;-93
2022/07/04 03:37:35;;;;;;;8.53;6.10;;;13.70;99.90;;;;;;5067451;28;20718;-92
2022/07/04 03:40:02;;;;;;;8.57;5.93;;;13.70;99.90;;;;;;5085542;28;20301;-93
2022/07/04 03:42:28;;;;;;;9.03;5.70;;;13.80;99.90;;;;;;5067038;28;20449;-93
2022/07/04 03:44:56;;;;;;;7.17;5.43;;;13.70;99.90;;;;;;5070104;28;20235;-93
2022/07/04 03:47:23;;;;;;;8.77;5.00;;;13.70;99.90;;;;;;5070646;28;20259;-94
2022/07/04 03:49:50;;;;;;;8.27;5.60;;;13.70;99.90;;;;;;5070236;28;20611;-91
2022/07/04 03:52:17;;;;;;;5.80;4.73;;;13.80;99.90;;;;;;5073656;28;20655;-93
2022/07/04 03:54:45;;;;;;;6.73;5.33;;;13.70;99.90;;;;;;5071026;28;20236;-92
2022/07/04 03:57:12;;;;;;;5.03;4.27;;;13.80;99.90;;;;;;5069887;28;20305;-93
2022/07/04 03:59:38;;;;;;;8.10;4.93;;;13.80;99.90;;;;;;5067006;28;20304;-92
2022/07/04 04:02:05;;;;;;;6.40;4.37;;;13.80;99.90;;;;;;5080208;28;20772;-93
2022/07/04 04:07:16;;;;;;;7.57;5.27;;;13.90;99.90;;;;;;5070934;28;20831;-93
2022/07/04 04:09:45;;;;;;;5.97;4.70;;;13.90;99.90;;;;;;5065227;28;20256;-93
2022/07/04 04:12:12;;;;;;;8.00;5.13;;;14.00;99.90;;;;;;5073387;28;20230;-92
2022/07/04 04:14:38;;;;;;;9.13;5.40;;;14.00;99.90;;;;;;5069029;28;20217;-92
2022/07/04 04:17:06;;;;;;;8.23;5.63;;;14.00;99.90;;;;;;5088123;28;20618;-93
2022/07/04 04:19:33;;;;;;;7.63;5.70;;;14.00;99.90;;;;;;5072125;28;20222;-92
2022/07/04 04:22:00;;;;;;;5.97;4.90;;;14.00;99.90;;;;;;5070003;28;20682;-93
2022/07/04 04:24:27;;;;;;;8.33;5.93;;;14.00;99.90;;;;;;5068993;28;20257;-93
2022/07/04 04:26:55;;;;;;;8.83;4.90;;;14.10;99.90;;;;;;5070336;28;20226;-93
2022/07/04 04:29:22;;;;;;;6.17;5.00;;;14.10;99.90;;;;;;5071655;28;20311;-93
2022/07/04 04:31:48;;;;;;;7.37;5.90;;;14.10;99.90;;;;;;5069963;28;20314;-94
2022/07/04 04:34:15;;;;;;;11.10;6.30;;;14.10;99.90;;;;;;5072234;28;20450;-93
2022/07/04 04:36:42;;;;;;;6.50;5.37;;;14.20;99.90;;;;;;5092450;28;20321;-91
2022/07/04 04:39:08;;;;;;;6.27;5.23;;;14.20;99.90;;;;;;5078891;28;20282;-91
2022/07/04 04:41:35;;;;;;;8.53;5.40;;;14.20;99.90;;;;;;5091903;28;20364;-93
2022/07/04 04:44:05;;;;;;;6.83;5.10;;;14.30;99.90;;;;;;5077944;28;20302;-92
2022/07/04 04:46:32;;;;;;;6.13;5.37;;;14.30;99.90;;;;;;5075285;28;20219;-92
2022/07/04 04:48:58;;;;;;;7.93;5.50;;;14.30;99.90;;;;;;5080350;28;20718;-91
2022/07/04 04:51:25;;;;;;;8.43;4.90;;;14.30;99.90;;;;;;5079437;28;20232;-91
2022/07/04 04:53:52;;;;;;;6.67;4.70;;;14.30;99.90;;;;;;5083559;28;20254;-91
2022/07/04 04:56:19;;;;;;;8.37;4.80;;;14.40;99.90;;;;;;5081669;28;20225;-91
2022/07/04 04:58:48;;;;;;;8.13;4.50;;;14.40;99.90;;;;;;5083040;28;20282;-92
2022/07/04 05:01:19;;;;;;;8.80;4.60;;;14.40;99.90;;;;;;5077397;28;20313;-92
2022/07/04 05:03:46;;;;;;;6.43;4.53;;;14.60;99.90;;;;;;5077569;28;20219;-92
2022/07/04 05:06:13;;;;;;;5.57;4.27;;;14.60;99.90;;;;;;5083451;28;20222;-91
2022/07/04 05:08:40;;;;;;;6.03;4.37;;;14.60;99.90;;;;;;5085279;28;20281;-90
2022/07/04 05:11:07;;;;;;;7.70;4.17;;;14.70;99.90;;;;;;5070278;28;20378;-94
2022/07/04 05:13:34;;;;;;;4.93;3.30;;;14.70;99.90;;;;;;5070822;28;20313;-92
2022/07/04 05:16:00;;;;;;;5.47;3.80;;;14.80;99.90;;;;;;5089613;28;20575;-93
2022/07/04 05:18:28;;;;;;;6.67;3.40;;;14.80;99.90;;;;;;5059872;28;20227;-93
2022/07/04 05:20:55;;;;;;;6.13;3.70;;;14.80;99.90;;;;;;5065873;28;20250;-92
2022/07/04 05:23:22;;;;;;;3.80;2.80;;;14.80;99.90;;;;;;5066002;28;20223;-91
2022/07/04 05:25:49;;;;;;;5.60;3.27;;;14.90;99.90;;;;;;5073513;28;20298;-91
2022/07/04 05:28:16;;;;;;;3.53;2.80;;;15.00;99.90;;;;;;5067609;28;20255;-92
2022/07/04 05:30:43;;;;;;;4.30;3.20;;;15.00;99.90;;;;;;5063403;28;20302;-91
2022/07/04 05:33:11;;;;;;;3.90;2.80;;;15.00;99.90;;;;;;5066130;28;20218;-91
2022/07/04 05:35:39;;;;;;;6.07;3.13;;;15.00;99.90;;;;;;5074708;28;20302;-92
2022/07/04 05:38:06;;;;;;;5.57;3.10;;;15.10;99.90;;;;;;5064664;28;20215;-92
2022/07/04 05:40:32;;;;;;;6.20;2.77;;;15.10;99.90;;;;;;5062983;28;20355;-91
2022/07/04 05:42:59;;;;;;;6.10;2.77;;;15.10;99.90;;;;;;5071595;28;20311;-92
2022/07/04 05:45:26;;;;;;;4.27;2.70;;;15.20;99.90;;;;;;5065079;28;20227;-93
2022/07/04 05:47:52;;;;;;;6.60;2.97;;;15.20;99.90;;;;;;5066846;28;20231;-92
2022/07/04 05:50:19;;;;;;;4.57;2.40;;;15.20;99.90;;;;;;5073691;28;20226;-92
2022/07/04 05:52:48;;;;;;;4.63;2.80;;;15.30;99.90;;;;;;5073066;28;20506;-92
2022/07/04 05:55:14;;;;;;;5.83;3.00;;;15.30;99.90;;;;;;5067114;28;20230;-91
2022/07/04 05:57:41;;;;;;;4.13;2.77;;;15.40;99.90;;;;;;5073057;28;20223;-91
2022/07/04 06:00:09;;;;;;;5.03;2.63;;;15.40;99.90;;;;;;5076281;28;20275;-91
2022/07/04 06:02:37;;;;;;;4.53;2.40;;;15.50;99.90;;;;;;5070253;28;20226;-93
2022/07/04 06:05:04;;;;;;;3.60;2.17;;;15.50;99.90;;;;;;5068480;28;20235;-93
2022/07/04 06:07:31;;;;;;;5.87;2.43;;;15.60;99.90;;;;;;5070953;28;20250;-92
2022/07/04 06:09:59;;;;;;;4.57;2.50;;;15.70;99.90;;;;;;5090739;28;20227;-91
2022/07/04 06:12:25;;;;;;;3.67;2.30;;;15.80;99.90;;;;;;5073764;28;20699;-92
2022/07/04 06:14:52;;;;;;;4.37;1.93;;;15.80;99.90;;;;;;5068293;28;20231;-92
2022/07/04 06:17:19;;;;;;;3.97;1.90;;;15.90;99.90;;;;;;5070312;28;20748;-90
2022/07/04 06:19:46;;;;;;;3.47;1.77;;;15.90;99.90;;;;;;5066509;28;20325;-93
2022/07/04 06:22:13;;;;;;;4.83;1.83;;;15.90;99.90;;;;;;5071030;28;20753;-92
2022/07/04 06:24:40;;;;;;;5.60;1.83;;;16.10;99.90;;;;;;5081698;28;20231;-93
2022/07/04 06:27:08;;;;;;;3.90;1.37;;;16.10;99.90;;;;;;5065782;28;20253;-91
2022/07/04 06:29:35;;;;;;;3.63;1.40;;;16.20;99.90;;;;;;5068213;28;20738;-92
2022/07/04 06:32:01;;;;;;;3.37;1.70;;;16.40;99.90;;;;;;5066994;28;20250;-93
2022/07/04 06:37:13;;;;;;;3.13;1.37;;;16.60;99.90;;;;;;5078087;28;20215;-92
2022/07/04 06:39:39;;;;;;;5.63;1.48;;;16.90;99.90;;;;;;5071832;28;20802;-93
2022/07/04 06:42:08;;;;;;;2.63;1.55;;;17.10;99.90;;;;;;5062736;28;20247;-92
2022/07/04 06:44:34;;;;;;;2.80;1.30;;;17.20;99.90;;;;;;5069679;28;20230;-91
2022/07/04 06:47:01;;;;;;;1.98;1.20;;;17.30;99.90;;;;;;5089828;28;20215;-90
2022/07/04 06:49:28;;;;;;;4.88;1.50;;;17.50;99.90;;;;;;5056833;28;20223;-92
2022/07/04 06:51:54;;;;;;;2.72;1.30;;;17.60;99.90;;;;;;5056443;28;20298;-92
2022/07/04 06:54:21;;;;;;;2.97;1.48;;;17.80;99.90;;;;;;5088749;28;20306;-92
2022/07/04 06:56:48;;;;;;;2.38;1.35;;;17.90;99.90;;;;;;5081274;28;20683;-93
2022/07/04 06:59:16;;;;;;;4.43;1.38;;;18.00;99.90;;;;;;5061036;28;20314;-92
2022/07/04 07:01:43;;;;;;;2.15;1.30;;;18.10;99.90;;;;;;5063756;28;20219;-93
2022/07/04 07:04:10;;;;;;;4.32;1.45;;;18.10;99.90;;;;;;5066265;28;20225;-93
2022/07/04 07:06:37;;;;;;;2.05;1.20;;;18.30;99.90;;;;;;5055739;28;20330;-92
2022/07/04 07:09:04;;;;;;;2.40;1.00;;;18.70;99.90;;;;;;5067051;28;20219;-91
2022/07/04 07:11:30;;;;;;;3.65;1.20;;;19.10;99.90;;;;;;5063580;28;20231;-93
2022/07/04 07:13:57;;;;;;;3.20;1.15;;;19.50;99.50;;;;;;5066120;28;20233;-92
2022/07/04 07:16:25;;;;;;;3.75;1.10;;;19.70;98.80;;;;;;5079707;28;20253;-93
2022/07/04 07:18:52;;;;;;;3.47;1.13;;;19.90;98.30;;;;;;5071331;28;20231;-93
2022/07/04 07:21:19;;;;;;;2.85;1.13;;;20.00;97.70;;;;;;5063953;28;20246;-92
2022/07/04 07:23:46;;;;;;;2.88;1.25;;;19.90;97.20;;;;;;5091288;28;20226;-92
2022/07/04 07:26:14;;;;;;;2.65;1.13;;;20.00;97.10;;;;;;5071972;28;20246;-93
2022/07/04 07:28:40;;;;;;;2.95;0.93;;;19.90;96.80;;;;;;5089196;28;20230;-92
2022/07/04 07:31:07;;;;;;;3.78;1.10;;;19.90;96.80;;;;;;5087122;28;20234;-92
2022/07/04 07:33:36;;;;;;;2.97;0.98;;;20.00;96.80;;;;;;5067037;28;20273;-92
2022/07/04 07:36:02;;;;;;;3.08;1.10;;;20.20;96.20;;;;;;5068609;28;20215;-94
2022/07/04 07:38:29;;;;;;;4.43;1.00;;;20.50;95.80;;;;;;5078967;28;20276;-92
2022/07/04 07:40:57;;;;;;;2.90;1.10;;;20.80;95.80;;;;;;5071435;28;20466;-93
2022/07/04 07:43:23;;;;;;;3.03;1.55;;;21.00;95.10;;;;;;5055962;28;20226;-91
2022/07/04 07:45:50;;;;;;;2.33;1.00;;;21.30;94.80;;;;;;5065309;28;20250;-93
2022/07/04 07:48:17;;;;;;;2.65;1.00;;;21.70;94.70;;;;;;5084390;28;20306;-92
2022/07/04 07:50:45;;;;;;;4.30;1.10;;;22.00;94.00;;;;;;5056294;28;20228;-91
2022/07/04 07:53:12;;;;;;;2.65;0.95;;;22.30;92.40;;;;;;5060991;28;20220;-92
2022/07/04 07:55:38;;;;;;;2.28;1.08;;;22.40;92.20;;;;;;5083929;28;20314;-93
2022/07/04 07:58:05;;;;;;;2.58;1.20;;;22.40;91.90;;;;;;5080379;28;20251;-93
2022/07/04 08:00:32;;;;;;;2.55;0.88;;;22.40;92.10;;;;;;5061717;28;20219;-91
2022/07/04 08:05:52;;;;;;;2.97;0.95;;;22.30;91.40;;;;;;5020149;28;20433;-92
2022/07/04 08:08:22;;;;;;;0.90;0.70;;;22.20;91.10;;;;;;5058870;28;20756;-92
2022/07/04 08:10:48;;;;;;;1.85;0.80;;;22.10;90.90;;;;;;5075704;28;20244;-93
2022/07/04 08:13:15;;;;;;;3.83;1.20;;;22.00;90.80;;;;;;5070785;28;20256;-93
2022/07/04 08:15:42;;;;;;;1.50;0.75;;;21.90;91.30;;;;;;5060132;28;20231;-93
2022/07/04 08:18:09;;;;;;;3.35;1.00;;;22.00;91.80;;;;;;5052233;28;20215;-92
2022/07/04 08:20:36;;;;;;;2.92;1.10;;;22.30;91.60;;;;;;5062781;28;20223;-92
2022/07/04 08:23:04;;;;;;;2.60;1.10;;;22.50;90.70;;;;;;5076538;28;21056;-93
2022/07/04 08:25:31;;;;;;;3.15;0.95;;;22.60;88.90;;;;;;5076842;28;20909;-91
2022/07/04 08:27:58;;;;;;;2.10;0.85;;;22.60;89.50;;;;;;5074128;28;20215;-91
2022/07/04 08:30:25;;;;;;;2.88;0.90;;;22.70;89.20;;;;;;5067323;28;20938;-92
2022/07/04 08:32:51;;;;;;;4.53;1.10;;;22.90;88.60;;;;;;5087673;28;20215;-93
2022/07/04 08:35:18;;;;;;;2.53;0.85;;;23.30;88.10;;;;;;5076170;28;20218;-90
2022/07/04 08:37:45;;;;;;;2.97;0.85;;;23.80;86.10;;;;;;5066874;28;20222;-93
2022/07/04 08:40:13;;;;;;;2.20;0.77;;;24.30;84.20;;;;;;5069098;28;20297;-92
2022/07/04 08:42:41;;;;;;;2.85;1.10;;;24.60;80.60;;;;;;5070335;28;20243;-92
2022/07/04 08:45:08;;;;;;;2.22;1.30;;;24.80;80.40;;;;;;5066170;28;20236;-92
2022/07/04 08:47:38;;;;;;;2.50;0.80;;;24.90;79.90;;;;;;5069568;28;20700;-93
2022/07/04 08:50:12;;;;;;;2.38;1.00;;;25.00;79.50;;;;;;5089819;28;20244;-92
2022/07/04 08:52:40;;;;;;;1.52;0.80;;;25.00;77.60;;;;;;5074046;28;20314;-92
2022/07/04 09:00:39;;;;;;;1.80;0.70;;;24.90;77.70;;;;;;5063536;28;20306;-93
2022/07/04 09:03:06;;;;;;;1.83;0.75;;;24.90;77.40;;;;;;5064555;28;20212;-94
2022/07/04 09:05:34;;;;;;;2.22;0.90;;;24.80;76.60;;;;;;5068046;28;20282;-92
2022/07/04 09:08:02;;;;;;;3.03;0.73;;;24.80;76.60;;;;;;5060788;28;20222;-93
2022/07/04 09:10:29;;;;;;;2.20;0.90;;;24.90;76.00;;;;;;5078854;28;20229;-92
2022/07/04 09:12:58;;;;;;;2.70;0.65;;;25.10;76.60;;;;;;5067732;28;20229;-93
2022/07/04 09:15:26;;;;;;;1.85;0.80;;;25.30;75.20;;;;;;5068965;28;20236;-93
2022/07/04 09:17:53;;;;;;;1.77;0.75;;;25.50;74.50;;;;;;5067713;28;20229;-93
2022/07/04 09:20:21;;;;;;;3.03;0.90;;;25.70;74.70;;;;;;5087854;28;20225;-93
2022/07/04 09:22:50;;;;;;;2.58;1.00;;;26.00;74.00;;;;;;5077395;28;20323;-93
2022/07/04 09:25:18;;;;;;;1.83;0.60;;;26.30;73.00;;;;;;5091918;28;20250;-93
2022/07/04 09:27:47;;;;;;;2.35;0.82;;;26.60;72.70;;;;;;5068758;28;20585;-93
2022/07/04 09:30:17;;;;;;;1.27;0.88;;;26.90;71.40;;;;;;5070398;28;20669;-93
2022/07/04 09:32:46;;;;;;;2.22;0.77;;;27.20;67.70;;;;;;5089425;28;20280;-93
2022/07/04 09:35:17;;;;;;;2.58;0.60;;;27.40;68.40;;;;;;5070808;28;20219;-93
2022/07/04 09:37:45;;;;;;;2.67;1.00;;;27.60;67.10;;;;;;5071312;28;20246;-93
2022/07/04 09:40:23;;;;;;;2.03;0.57;;;27.70;67.10;;;;;;5089471;28;20218;-93
2022/07/04 09:42:49;;;;;;;2.10;0.90;;;27.70;66.30;;;;;;5068030;28;20291;-91
2022/07/04 09:45:18;;;;;;;5.55;1.70;;;27.70;65.90;;;;;;5071305;28;20233;-93
2022/07/04 09:47:46;;;;;;;1.83;0.82;;;27.70;65.60;;;;;;5068177;28;20835;-93
2022/07/04 09:50:15;;;;;;;3.63;1.02;;;27.70;66.00;;;;;;5059300;28;20227;-93
2022/07/04 09:52:50;;;;;;;1.77;0.88;;;27.80;65.80;;;;;;5071226;28;20227;-94
2022/07/04 09:55:26;;;;;;;1.85;0.70;;;27.80;64.50;;;;;;5065370;28;20261;-92
2022/07/04 09:57:53;;;;;;;1.80;0.90;;;27.80;63.50;;;;;;5074266;28;20903;-94
2022/07/04 10:00:23;;;;;;;2.38;0.90;;;27.80;64.10;;;;;;5070283;28;20228;-93
2022/07/04 10:02:51;;;;;;;2.13;0.93;;;27.80;64.10;;;;;;5085529;28;20215;-93
2022/07/04 10:05:25;;;;;;;1.23;0.90;;;27.80;63.90;;;;;;5068981;28;20254;-93
2022/07/04 10:07:54;;;;;;;1.67;0.70;;;27.80;63.20;;;;;;5074544;28;20219;-94
2022/07/04 10:10:33;;;;;;;0.93;0.52;;;27.90;63.70;;;;;;5073622;28;20233;-94
2022/07/04 10:13:03;;;;;;;1.02;0.65;;;28.10;61.10;;;;;;5088520;28;20242;-93
2022/07/04 10:15:32;;;;;;;2.53;0.80;;;28.30;61.40;;;;;;5072877;28;20245;-93
2022/07/04 10:17:59;;;;;;;1.65;0.60;;;28.50;61.10;;;;;;5066267;28;20262;-92
2022/07/04 10:20:27;;;;;;;2.20;0.90;;;28.60;61.00;;;;;;5060588;28;20248;-91
2022/07/04 10:22:54;;;;;;;2.80;0.80;;;28.90;60.50;;;;;;5062501;28;20305;-93
2022/07/04 10:25:21;;;;;;;1.23;0.55;;;29.00;60.70;;;;;;5060107;28;20224;-93
2022/07/04 10:27:50;;;;;;;0.60;0.50;;;29.30;60.80;;;;;;5069884;28;20276;-92
2022/07/04 10:30:21;;;;;;;1.92;0.50;;;29.40;60.00;;;;;;5079242;28;20284;-93
2022/07/04 10:32:51;;;;;;;1.55;0.50;;;29.60;58.90;;;;;;5070219;28;20264;-91
2022/07/04 10:35:18;;;;;;;1.23;0.63;;;29.70;58.60;;;;;;5084837;28;20290;-93
2022/07/04 10:38:05;;;;;;;1.63;0.65;;;29.70;58.10;;;;;;5070504;28;20310;-93
2022/07/04 10:40:47;;;;;;;3.15;0.80;;;29.60;57.90;;;;;;5062752;28;20732;-92
2022/07/04 10:43:53;;;;;;;1.33;0.47;;;29.50;57.20;;;;;;5070365;28;20288;-93
2022/07/04 10:46:25;;;;;;;1.98;0.77;;;29.30;57.40;;;;;;5076220;28;20294;-94
2022/07/04 10:48:54;;;;;;;1.15;0.52;;;29.20;57.20;;;;;;5073084;28;20233;-94
2022/07/04 10:51:38;;;;;;;4.93;0.60;;;29.10;57.30;;;;;;5074044;28;20223;-93
2022/07/04 10:54:07;;;;;;;1.25;0.43;;;28.90;57.10;;;;;;5088200;28;20215;-93
2022/07/04 10:56:43;;;;;;;3.60;0.70;;;28.70;57.70;;;;;;5074090;28;20274;-92
2022/07/04 10:59:13;;;;;;;1.60;0.60;;;28.50;57.50;;;;;;5072402;28;20241;-93
2022/07/04 11:01:40;;;;;;;1.90;0.80;;;28.40;57.70;;;;;;5077881;28;20278;-93
2022/07/04 11:04:08;;;;;;;1.08;0.50;;;28.40;57.90;;;;;;5071697;28;20237;-93
2022/07/04 11:06:52;;;;;;;2.33;0.80;;;28.40;57.60;;;;;;5070894;28;20223;-93
2022/07/04 11:09:19;;;;;;;2.83;0.68;;;28.30;57.40;;;;;;5066013;28;20246;-93
2022/07/04 11:11:51;;;;;;;1.08;0.50;;;28.30;57.80;;;;;;5074337;28;20299;-92
2022/07/04 11:14:36;;;;;;;1.70;0.70;;;28.30;57.90;;;;;;5072962;28;20740;-93
2022/07/04 11:17:04;;;;;;;1.60;0.52;;;28.30;57.90;;;;;;5073188;28;20298;-91
2022/07/04 11:19:32;;;;;;;0.95;0.43;;;28.50;57.60;;;;;;5072502;28;20302;-91
2022/07/04 11:21:59;;;;;;;0.93;0.47;;;28.70;58.10;;;;;;5069176;28;20231;-92
2022/07/04 11:24:28;;;;;;;1.27;0.50;;;29.00;57.00;;;;;;5074764;28;20508;-94
2022/07/04 11:26:55;;;;;;;0.55;0.50;;;29.30;56.70;;;;;;5070169;28;20225;-94
2022/07/04 11:29:21;;;;;;;1.65;0.70;;;29.60;56.10;;;;;;5062277;28;20227;-93
2022/07/04 11:31:51;;;;;;;1.90;0.70;;;29.70;55.40;;;;;;5074790;28;20311;-92
2022/07/04 11:34:18;;;;;;;1.60;0.80;;;29.80;55.40;;;;;;5069275;28;20786;-93
2022/07/04 11:36:48;;;;;;;1.08;0.55;;;29.80;55.00;;;;;;5094109;28;20327;-93
2022/07/04 11:39:19;;;;;;;1.55;0.65;;;29.70;54.00;;;;;;5075481;28;20643;-90
2022/07/04 11:47:20;;;;;;;1.25;0.73;;;28.80;54.30;;;;;;5070822;28;20230;-92
2022/07/04 11:49:49;;;;;;;1.83;0.70;;;28.20;54.30;;;;;;5073363;28;20227;-94
2022/07/04 11:52:19;;;;;;;3.10;0.73;;;27.70;54.90;;;;;;5075550;28;20223;-93
2022/07/04 11:54:48;;;;;;;1.83;0.60;;;27.20;55.50;;;;;;5091356;28;20480;-93
2022/07/04 11:57:18;;;;;;;1.27;0.80;;;26.70;56.10;;;;;;5077556;28;20337;-93
2022/07/04 11:59:57;;;;;;;1.52;0.90;;;26.30;56.70;;;;;;5092638;28;20223;-92
2022/07/04 12:02:24;;;;;;;2.55;0.60;;;26.00;58.00;;;;;;5077477;28;24973;-92
2022/07/04 12:04:52;;;;;;;2.47;0.85;;;25.90;58.60;;;;;;5062752;28;20224;-93
2022/07/04 12:07:24;;;;;;;2.28;0.77;;;25.90;59.20;;;;;;5066794;28;20314;-92
2022/07/04 12:09:51;;;;;;;1.80;0.55;;;26.10;59.00;;;;;;5067392;28;20249;-93
2022/07/04 12:12:18;;;;;;;2.65;0.90;;;26.20;58.90;;;;;;5075321;28;20730;-92
2022/07/04 12:14:59;;;;;;;1.38;0.55;;;26.40;58.40;;;;;;5072323;28;20275;-93
2022/07/04 12:17:31;;;;;;;2.67;0.68;;;26.40;58.00;;;;;;5069007;28;20233;-92
2022/07/04 12:20:00;;;;;;;1.40;0.60;;;26.60;58.40;;;;;;5071407;28;20226;-92
2022/07/04 12:22:36;;;;;;;1.10;0.70;;;26.60;58.20;;;;;;5093417;28;20305;-92
2022/07/04 12:25:07;;;;;;;2.28;0.80;;;26.70;57.40;;;;;;5083294;28;20233;-93
2022/07/04 12:27:34;;;;;;;1.40;0.70;;;26.90;57.60;;;;;;5066956;28;20265;-93
2022/07/04 12:30:02;;;;;;;3.40;0.80;;;27.00;57.60;;;;;;5069008;28;20223;-93
2022/07/04 12:32:51;;;;;;;0.85;0.50;;;27.30;57.50;;;;;;5069137;28;20225;-92
2022/07/04 12:35:39;;;;;;;5.13;0.70;;;27.60;56.30;;;;;;5063049;28;20975;-93
2022/07/04 12:38:09;;;;;;;2.15;0.80;;;27.90;56.90;;;;;;5079168;28;20219;-93
2022/07/04 12:40:37;;;;;;;2.50;0.85;;;28.00;54.90;;;;;;5071465;28;20698;-92
2022/07/04 12:43:04;;;;;;;2.33;0.80;;;28.10;54.90;;;;;;5057068;28;20298;-94
2022/07/04 12:45:50;;;;;;;1.52;0.60;;;28.00;54.20;;;;;;5061659;28;20943;-94
2022/07/04 12:48:19;;;;;;;2.88;0.80;;;27.90;54.60;;;;;;5086031;28;20288;-92
2022/07/04 12:50:46;;;;;;;2.03;0.90;;;27.80;54.40;;;;;;5074275;28;20278;-94
2022/07/04 12:53:14;;;;;;;1.63;0.80;;;27.70;54.30;;;;;;5067563;28;20302;-93
2022/07/04 12:55:43;;;;;;;1.13;0.80;;;27.50;54.50;;;;;;5067048;28;20233;-94
2022/07/04 12:58:10;;;;;;;1.30;0.60;;;27.30;54.60;;;;;;5070288;28;20226;-93
2022/07/04 13:00:38;;;;;;;2.40;0.70;;;27.10;54.60;;;;;;5069671;28;20948;-93
2022/07/04 13:03:05;;;;;;;0.88;0.70;;;26.90;54.90;;;;;;5090405;28;20215;-92
2022/07/04 13:05:34;;;;;;;2.50;0.90;;;26.70;55.20;;;;;;5066766;28;20254;-94
2022/07/04 13:08:01;;;;;;;1.67;0.50;;;26.70;55.30;;;;;;5062394;28;20235;-93
2022/07/04 13:10:30;;;;;;;2.50;0.63;;;26.60;55.10;;;;;;5067755;28;20277;-93
2022/07/04 13:12:57;;;;;;;3.25;0.80;;;26.70;54.60;;;;;;5096494;28;20226;-94
2022/07/04 13:15:25;;;;;;;1.33;0.60;;;26.80;55.20;;;;;;5089890;28;20235;-93
2022/07/04 13:17:51;;;;;;;1.27;0.77;;;26.90;55.50;;;;;;5073227;28;20291;-93